Friday, June 24, 2016, 6:02 PM EDT

KLNS, Lancaster Airport

Location: Lititz, PA, United States Lat: 40.117
Local Time: 6:02 PM EDT (22:02 GMT) Lon: -76.3
Time Zone: US/Eastern Elev: 403 ft

Show me the last for .
Show Decoded

2016-06-24 16:53 METAR KLNS 242053Z 13009KT 10SM -RA FEW043 BKN055 OVC080 26/19 A3001 RMK AO2
                 RAB49 SLP160 P0000 60000 T02560189 53001 =
2016-06-24 15:53 METAR KLNS 241953Z 14010KT 9SM FEW043 BKN090 26/19 A3001 RMK AO2 LTG DSNT S
                 SLP157 T02610194 =
2016-06-24 14:53 METAR KLNS 241853Z 09008KT 10SM FEW046 BKN060 27/18 A3001 RMK AO2 SLP158
                 T02670178 =
2016-06-24 13:53 METAR KLNS 241753Z VRB04KT 10SM FEW043 SCT080 27/18 A3001 RMK AO2 SLP159
                 T02720178 10278 20200 58001 =
2016-06-24 12:53 METAR KLNS 241653Z 12005KT 10SM FEW048 SCT060 26/17 A3003 RMK AO2 SLP164
                 T02560172 =
2016-06-24 11:53 METAR KLNS 241553Z 11006KT 8SM SCT039 BKN050 24/18 A3003 RMK AO2 SLP166
                 T02440178 =
2016-06-24 10:53 METAR KLNS 241453Z 09008KT 10SM FEW042 23/16 A3002 RMK AO2 SLP162 T02280161
                 51009 =
2016-06-24 09:53 METAR KLNS 241353Z 07007KT 10SM BKN041 BKN075 22/17 A3001 RMK AO2 SLP161
                 T02220167 =
2016-06-24 08:53 METAR KLNS 241253Z 07006KT 10SM SCT050 OVC085 21/16 A3001 RMK AO2 SLP159
                 T02110161 =
2016-06-24 07:53 METAR KLNS 241153Z 05004KT 10SM SCT046 OVC065 20/17 A2999 RMK AO2 SLP153 70132
                 T02000167 10206 20189 53020 =
2016-06-24 06:53 METAR KLNS 241053Z 05006KT 10SM BKN060 19/17 A2996 RMK AO2 SLP142 T01890167 =
2016-06-24 05:53 METAR KLNS 240953Z 05005KT 7SM FEW110 19/17 A2994 RMK AO2 SLP135 T01940172 =
2016-06-24 04:53 METAR KLNS 240853Z AUTO 03003KT 4SM BR FEW110 19/19 A2993 RMK AO2 SLP131
                 T01940189 53012 =
2016-06-24 04:26 METAR KLNS 240826Z AUTO 00000KT 3SM BR SCT002 SCT110 19/19 A2992 RMK AO2
                 T01940189 =
2016-06-24 04:22 METAR KLNS 240822Z AUTO 00000KT 2SM BR BKN002 19/19 A2992 RMK AO2 T01940194 =
2016-06-24 03:53 METAR KLNS 240753Z AUTO 02003KT 1/2SM FG VV002 20/19 A2991 RMK AO2 SLP126
                 T02000194 =
2016-06-24 03:29 METAR KLNS 240729Z AUTO 00000KT 1/2SM FG VV002 20/20 A2991 RMK AO2 T02000200 =
2016-06-24 02:53 METAR KLNS 240653Z AUTO 35003KT 1/4SM FG BKN002 BKN110 20/19 A2991 RMK AO2
                 SLP123 T02000194 =
2016-06-24 02:44 METAR KLNS 240644Z AUTO 00000KT 1 1/4SM BR BKN003 BKN110 19/19 A2990 RMK AO2
                 T01940189 =
2016-06-24 02:35 METAR KLNS 240635Z AUTO 36003KT 2 1/2SM BR FEW003 BKN110 19/19 A2990 RMK AO2
                 T01940194 =
2016-06-24 02:31 METAR KLNS 240631Z AUTO 00000KT 3SM BR BKN110 20/19 A2990 RMK AO2 T02000194 =
2016-06-24 02:00 METAR KLNS 240600Z AUTO 33003KT 2 1/2SM BR BKN095 20/19 A2989 RMK AO2 T02000194
                 =
2016-06-24 01:53 METAR KLNS 240553Z AUTO 31003KT 3SM BR OVC090 20/19 A2989 RMK AO2 SLP119 60001
                 T02000194 10211 20200 53002 =
2016-06-24 01:31 METAR KLNS 240531Z AUTO 00000KT 3SM BR FEW006 BKN090 21/20 A2989 RMK AO2
                 T02060200 =
2016-06-24 00:53 METAR KLNS 240453Z AUTO 31003KT 6SM BR FEW043 SCT070 21/19 A2989 RMK AO2 SLP116
                 T02060194 402780167 =
2016-06-24 00:09 METAR KLNS 240409Z AUTO 00000KT 3SM BR SCT041 21/20 A2989 RMK AO2 T02060200 =
2016-06-23 23:58 METAR KLNS 240358Z AUTO 26003KT 2 1/2SM BR FEW004 21/21 A2989 RMK AO2 T02110206
                 =
2016-06-23 23:53 METAR KLNS 240353Z AUTO 00000KT 1 1/4SM BR CLR 21/21 A2989 RMK AO2 SLP118
                 T02060206 =
2016-06-23 23:40 METAR KLNS 240340Z AUTO 00000KT 3/4SM BR CLR 21/20 A2988 RMK AO2 T02060200 =
2016-06-23 23:24 METAR KLNS 240324Z AUTO 01003KT 3/4SM BR VV004 21/20 A2988 RMK AO2 T02060200 =
2016-06-23 23:22 METAR KLNS 240322Z AUTO 00000KT 1SM BR VV005 21/20 A2988 RMK AO2 T02060200 =
2016-06-23 23:07 METAR KLNS 240307Z AUTO 00000KT 2 1/2SM BR CLR 21/21 A2989 RMK AO2 T02110206 =
2016-06-23 22:53 METAR KLNS 240253Z 00000KT 4SM BR FEW005 SCT050 21/20 A2989 RMK AO2 RAB28E52
                 SLP117 P0001 60001 T02110200 51011 =
2016-06-23 22:35 METAR KLNS 240235Z 00000KT 5SM -RA BR BKN005 BKN060 BKN075 21/20 A2988 RMK AO2
                 RAB28 P0001 T02110200 =
2016-06-23 22:12 METAR KLNS 240212Z 19003KT 5SM BR BKN003 OVC120 21/20 A2988 RMK AO2 T02110200 =
2016-06-23 21:53 METAR KLNS 240153Z 00000KT 4SM BR SCT003 BKN100 BKN120 21/21 A2987 RMK AO2
                 SLP113 T02110206 =
2016-06-23 20:53 METAR KLNS 240053Z 13004KT 5SM BR OVC110 21/21 A2985 RMK AO2 SLP107 T02110206 =
2016-06-23 19:53 METAR KLNS 232353Z 04003KT 10SM BKN048 OVC100 22/21 A2984 RMK AO2 RAE48 SLP103
                 P0005 60131 T02170206 10278 20206 50014 =
2016-06-23 19:06 METAR KLNS 232306Z 29005KT 3SM RA BR FEW023 BKN034 OVC050 21/20 A2984 RMK AO2
                 LTG DSNT E P0003 T02110200 =
2016-06-23 18:58 METAR KLNS 232258Z 00000KT 1SM +RA BR SCT021 BKN036 OVC046 21/20 A2984 RMK AO2
                 LTG DSNT E P0002 T02060200 =
2016-06-23 18:53 METAR KLNS 232253Z 29003KT 3/4SM +RA BR BKN019 OVC036 21/20 A2985 RMK AO2 PK WND
                 31028/2205 LTG DSNT E RAB2156 TSB2155E25 SLP105 P0126 T02060200 =
2016-06-23 18:31 METAR KLNS 232231Z VRB04KT 1/2SM VCTS +RA FG BKN017 BKN024 OVC035 21/21 A2985
                 RMK AO2 PK WND 31028/2205 LTG DSNT E RAB2156 TSB2155E25 P0073 T02060206 =
2016-06-23 18:14 METAR KLNS 232214Z 01012G28KT 1/2SM +TSRA FG SCT019 BKN026 OVC080 22/20 A2984
                 RMK AO2 PK WND 31028/2205 LTG DSNT NE AND E RAB2156 TSB2155 P0032 T02170200 =
2016-06-23 18:06 METAR KLNS 232206Z 30024G28KT 1 3/4SM +TSRA FEW020 BKN042 OVC080 24/20 A2984 RMK
                 AO2 PK WND 31028/2205 LTG DSNT NE AND E RAB2156 TSB2155 PRESRR P0011 T02390200 =

Support USWX by starting your Amazon purchase here.